Time;durP1;ratioP1;P1;durP2;ratioP2;P2;SDS_P1;SDS_P2;PMS_P1;PMS_P2;Temp;Humidity;BMP_temperature;BMP_pressure;BME280_temperature;BME280_humidity;BME280_pressure;Samples;Min_cycle;Max_cycle;Signal;HPM_P1;HPM_P2
2022/01/28 00:01:02;;;;;;;10.90;6.38;;;;;;;4.78;48.46;101699.72;2568543;23;20479;-70
2022/01/28 00:02:14;;;;;;;7.22;5.70;;;;;;;4.84;47.90;101692.75;2569163;23;20255;-70
2022/01/28 00:03:16;;;;;;;8.82;6.05;;;;;;;4.83;48.29;101700.19;2569502;23;20136;-70
2022/01/28 00:04:18;;;;;;;7.60;5.88;;;;;;;4.86;48.08;101696.72;2567672;23;20160;-70
2022/01/28 00:05:21;;;;;;;6.20;4.70;;;;;;;4.91;48.04;101690.91;2569354;23;20594;-70
2022/01/28 00:06:22;;;;;;;7.57;5.25;;;;;;;4.94;47.63;101692.94;2569213;23;20279;-70
2022/01/28 00:07:22;;;;;;;7.20;5.13;;;;;;;4.91;47.95;101690.91;2568932;23;20145;-69
2022/01/28 00:08:23;;;;;;;6.43;4.83;;;;;;;4.67;47.66;101652.84;2569290;23;20478;-70
2022/01/28 00:09:25;;;;;;;7.27;5.13;;;;;;;5.00;47.75;101687.91;2569347;23;20149;-70
2022/01/28 00:10:27;;;;;;;5.88;4.60;;;;;;;5.02;47.43;101686.38;2568676;23;20159;-70
2022/01/28 00:11:27;;;;;;;7.60;5.18;;;;;;;5.08;47.30;101684.88;2569137;23;20276;-70
2022/01/28 00:12:29;;;;;;;7.00;4.80;;;;;;;5.11;47.55;101681.41;2569307;23;20606;-70
2022/01/28 00:13:36;;;;;;;6.03;4.85;;;;;;;5.11;47.51;101686.09;2569497;23;20543;-70
2022/01/28 00:14:49;;;;;;;6.78;5.00;;;;;;;4.99;47.36;101651.41;2567846;23;20147;-70
2022/01/28 00:36:32;;;;;;;7.20;4.90;;;;;;;5.11;47.78;101664.13;2569190;23;20173;-70
2022/01/28 00:38:49;;;;;;;7.18;5.43;;;;;;;5.20;47.25;101657.22;2568839;23;20253;-70
2022/01/28 00:39:50;;;;;;;6.87;5.30;;;;;;;4.81;46.97;101600.91;2569303;23;20244;-70
2022/01/28 00:40:50;;;;;;;6.90;4.93;;;;;;;4.78;47.18;101615.34;2568763;23;20168;-70
2022/01/28 00:41:51;;;;;;;6.90;5.37;;;;;;;5.26;47.44;101654.94;2569018;23;20157;-70
2022/01/28 00:42:51;;;;;;;8.17;5.77;;;;;;;5.33;46.74;101666.81;2569232;23;20237;-70
2022/01/28 00:43:52;;;;;;;7.80;5.33;;;;;;;5.34;47.07;101659.38;2568337;23;20172;-70
2022/01/28 00:44:52;;;;;;;6.93;5.40;;;;;;;5.33;46.67;101658.56;2568802;23;20225;-70
2022/01/28 00:45:53;;;;;;;8.30;5.40;;;;;;;5.29;46.56;101659.69;2569061;23;20204;-70
2022/01/28 00:46:54;;;;;;;6.27;5.07;;;;;;;5.04;46.80;101623.63;2569248;23;20496;-70
2022/01/28 00:47:55;;;;;;;6.57;5.00;;;;;;;5.33;46.27;101644.03;2568482;23;20159;-70
2022/01/28 00:48:56;;;;;;;6.40;4.85;;;;;;;5.32;46.42;101648.75;2568055;23;20280;-70
2022/01/28 00:49:56;;;;;;;7.18;5.03;;;;;;;5.25;46.65;101640.41;2568398;23;20161;-70
2022/01/28 00:50:57;;;;;;;6.60;5.27;;;;;;;5.19;46.54;101652.09;2568434;23;20151;-70
2022/01/28 00:51:58;;;;;;;6.77;4.60;;;;;;;5.30;46.27;101642.84;2568167;23;20159;-70
2022/01/28 00:52:59;;;;;;;6.87;5.00;;;;;;;5.09;46.35;101601.31;2568507;23;20444;-70
2022/01/28 00:53:59;;;;;;;6.90;4.93;;;;;;;5.17;45.94;101608.50;2567454;23;20665;-70
2022/01/28 00:55:00;;;;;;;6.40;4.87;;;;;;;5.38;46.68;101640.97;2567966;23;20153;-70
2022/01/28 00:56:00;;;;;;;6.63;5.00;;;;;;;4.93;45.93;101569.69;2568528;23;20289;-70
2022/01/28 00:57:01;;;;;;;6.30;4.90;;;;;;;4.94;45.89;101574.81;2568488;23;20281;-70
2022/01/28 00:58:02;;;;;;;5.90;4.33;;;;;;;5.43;46.58;101646.16;2568658;23;20178;-70
2022/01/28 00:59:03;;;;;;;5.93;4.40;;;;;;;5.41;45.88;101642.97;2569392;23;20258;-70
2022/01/28 01:00:06;;;;;;;5.90;4.38;;;;;;;5.37;46.28;101644.88;2568690;23;20617;-70
2022/01/28 01:01:07;;;;;;;5.55;4.30;;;;;;;4.90;46.03;101573.97;2569332;23;20250;-70
2022/01/28 01:02:07;;;;;;;6.07;4.70;;;;;;;5.41;45.70;101646.50;2568049;23;20155;-70
2022/01/28 01:03:08;;;;;;;6.93;5.00;;;;;;;5.04;46.14;101589.84;2568308;23;20234;-70
2022/01/28 01:04:09;;;;;;;7.40;4.77;;;;;;;5.40;46.26;101658.69;2568222;23;20162;-70
2022/01/28 01:05:10;;;;;;;5.43;4.47;;;;;;;4.94;46.49;101576.75;2568710;23;20231;-70
2022/01/28 01:06:10;;;;;;;7.82;5.43;;;;;;;5.04;46.10;101581.63;2568758;23;20208;-70
2022/01/28 01:07:11;;;;;;;5.70;4.50;;;;;;;5.40;46.22;101635.88;2569365;23;20159;-70
2022/01/28 01:08:11;;;;;;;6.47;4.53;;;;;;;5.30;46.36;101614.53;2568479;23;20152;-70
2022/01/28 01:09:12;;;;;;;6.50;4.80;;;;;;;4.97;46.49;101562.31;2568160;23;20197;-70
2022/01/28 01:10:13;;;;;;;6.47;5.27;;;;;;;5.50;46.00;101638.78;2567585;23;20151;-70
2022/01/28 01:11:13;;;;;;;6.37;4.90;;;;;;;5.55;45.96;101632.16;2568126;23;20652;-70
2022/01/28 01:12:17;;;;;;;7.07;5.43;;;;;;;5.51;45.72;101623.88;2568015;23;20195;-70
2022/01/28 01:13:18;;;;;;;6.38;5.45;;;;;;;5.26;45.84;101575.22;2569305;23;20152;-70
2022/01/28 01:14:18;;;;;;;7.57;5.63;;;;;;;5.64;45.81;101643.66;2567707;23;20152;-70
2022/01/28 01:15:23;;;;;;;6.73;5.20;;;;;;;5.66;45.59;101631.13;2569218;23;20179;-70
2022/01/28 01:16:32;;;;;;;7.20;5.43;;;;;;;5.35;46.14;101582.03;2569061;23;20547;-70
2022/01/28 01:17:38;;;;;;;8.00;4.93;;;;;;;4.99;45.44;101524.25;2568788;23;20570;-70
2022/01/28 01:18:49;;;;;;;7.05;5.20;;;;;;;5.72;45.29;101623.31;2569149;23;20571;-70
2022/01/28 01:19:53;;;;;;;6.22;4.70;;;;;;;5.68;45.40;101622.47;2568185;23;20166;-70
2022/01/28 01:21:08;;;;;;;6.35;4.95;;;;;;;5.71;45.57;101619.00;2567800;23;20227;-70
2022/01/28 01:22:10;;;;;;;7.07;5.28;;;;;;;5.76;44.97;101624.97;2569390;23;20132;-70
2022/01/28 01:23:15;;;;;;;7.22;5.40;;;;;;;5.76;45.65;101622.22;2569275;23;20159;-70
2022/01/28 01:24:22;;;;;;;6.43;4.60;;;;;;;5.83;44.99;101621.50;2568105;23;20488;-70
2022/01/28 01:25:27;;;;;;;6.55;4.60;;;;;;;5.30;45.11;101551.34;2568463;23;20148;-70
2022/01/28 01:26:30;;;;;;;6.78;4.68;;;;;;;5.81;45.56;101615.59;2568168;23;20187;-70
2022/01/28 01:27:30;;;;;;;7.10;5.00;;;;;;;5.82;44.85;101619.94;2568704;23;20152;-70
2022/01/28 01:28:35;;;;;;;6.80;5.50;;;;;;;5.79;45.26;101618.69;2569050;23;20144;-70
2022/01/28 01:29:41;;;;;;;7.00;5.30;;;;;;;5.80;45.73;101606.53;2569287;23;20254;-70
2022/01/28 01:30:43;;;;;;;7.25;5.20;;;;;;;5.84;44.95;101606.59;2568991;23;20218;-70
2022/01/28 01:31:44;;;;;;;7.03;5.38;;;;;;;5.62;45.27;101558.78;2568180;23;20609;-70
2022/01/28 01:32:45;;;;;;;7.25;5.30;;;;;;;5.74;45.54;101571.50;2568437;23;20198;-70
2022/01/28 01:33:54;;;;;;;7.47;5.43;;;;;;;5.60;45.28;101555.59;2568418;23;20214;-70
2022/01/28 01:34:55;;;;;;;6.30;4.85;;;;;;;6.02;44.31;101602.06;2568514;23;20211;-70
2022/01/28 01:35:59;;;;;;;6.10;4.60;;;;;;;6.04;44.70;101602.47;2569027;23;20159;-70
2022/01/28 01:36:59;;;;;;;6.45;4.78;;;;;;;5.92;44.83;101603.53;2569193;23;20162;-71
2022/01/28 01:38:00;;;;;;;7.40;5.30;;;;;;;5.85;44.82;101586.94;2568583;23;20160;-70
2022/01/28 01:39:02;;;;;;;6.85;5.35;;;;;;;5.68;45.31;101575.72;2568705;23;20153;-70
2022/01/28 01:40:04;;;;;;;7.15;5.00;;;;;;;5.75;45.42;101600.56;2568533;23;20175;-70
2022/01/28 01:41:11;;;;;;;6.82;4.97;;;;;;;5.78;44.60;101592.34;2568361;23;20475;-70
2022/01/28 01:43:20;;;;;;;5.87;4.90;;;;;;;4.92;45.54;101499.44;2569293;23;20547;-70
2022/01/28 01:44:34;;;;;;;6.25;5.18;;;;;;;5.63;45.27;101581.56;2567731;23;20136;-70
2022/01/28 01:45:53;;;;;;;7.05;5.20;;;;;;;5.68;45.21;101568.28;2569060;23;20136;-70
2022/01/28 01:52:31;;;;;;;6.05;4.38;;;;;;;5.87;44.21;101592.88;2569027;23;20140;-70
2022/01/28 01:53:31;;;;;;;5.07;3.90;;;;;;;5.90;44.36;101597.63;2568107;23;20609;-70
2022/01/28 01:54:41;;;;;;;8.40;4.80;;;;;;;5.82;44.47;101576.72;2566806;23;20154;-70
2022/01/28 01:55:42;;;;;;;7.00;4.40;;;;;;;5.31;44.60;101517.19;2568892;23;20132;-70
2022/01/28 01:56:42;;;;;;;6.57;4.80;;;;;;;5.51;44.59;101519.41;2569164;23;20156;-70
2022/01/28 01:57:43;;;;;;;5.63;4.40;;;;;;;5.98;44.65;101584.72;2568543;23;20589;-70
2022/01/28 01:58:45;;;;;;;6.15;4.55;;;;;;;6.00;44.38;101585.94;2569246;23;20163;-70
2022/01/28 01:59:47;;;;;;;7.15;4.85;;;;;;;6.01;44.43;101576.50;2568918;23;20238;-70
2022/01/28 02:00:48;;;;;;;7.05;4.85;;;;;;;6.04;44.54;101581.25;2568310;23;20511;-70
2022/01/28 02:01:48;;;;;;;6.30;4.77;;;;;;;5.49;44.42;101494.22;2568869;23;20174;-70
2022/01/28 02:02:49;;;;;;;5.90;4.37;;;;;;;5.98;44.60;101563.50;2568812;23;20160;-70
2022/01/28 02:03:50;;;;;;;6.07;4.47;;;;;;;5.88;45.24;101549.63;2568311;23;20230;-69
2022/01/28 02:04:51;;;;;;;5.63;4.15;;;;;;;6.07;44.21;101568.69;2568638;23;20636;-69
2022/01/28 02:05:54;;;;;;;6.50;4.40;;;;;;;5.80;44.71;101509.50;2568727;23;20526;-69
2022/01/28 02:06:55;;;;;;;5.82;4.47;;;;;;;6.15;44.37;101565.63;2568302;23;20160;-69
2022/01/28 02:08:04;;;;;;;5.72;4.05;;;;;;;6.17;44.18;101573.50;2567632;23;20156;-69
2022/01/28 02:09:05;;;;;;;5.47;4.32;;;;;;;5.71;44.23;101493.28;2568992;23;20141;-69
2022/01/28 02:10:06;;;;;;;6.82;4.80;;;;;;;6.15;44.34;101551.88;2568225;23;20183;-69
2022/01/28 02:11:06;;;;;;;4.67;4.00;;;;;;;6.16;44.53;101549.91;2568141;23;20633;-69
2022/01/28 02:12:08;;;;;;;6.50;4.87;;;;;;;5.98;44.48;101515.94;2568068;23;20164;-69
2022/01/28 02:13:08;;;;;;;5.88;4.25;;;;;;;6.17;44.54;101557.00;2569257;23;20656;-69
2022/01/28 02:14:09;;;;;;;6.80;4.60;;;;;;;6.18;44.18;101558.56;2568250;23;20547;-69
2022/01/28 02:15:09;;;;;;;5.60;4.47;;;;;;;6.19;43.99;101543.63;2580225;23;20171;-69
2022/01/28 02:16:10;;;;;;;6.77;4.97;;;;;;;6.14;43.86;101546.75;2580607;23;20238;-69
2022/01/28 02:17:10;;;;;;;6.43;4.27;;;;;;;5.96;44.31;101512.78;2569150;23;20229;-69
2022/01/28 02:18:11;;;;;;;5.90;4.37;;;;;;;6.14;44.06;101544.78;2568584;23;20178;-69
2022/01/28 02:19:11;;;;;;;6.10;4.37;;;;;;;6.15;44.21;101545.59;2569220;23;20153;-69
2022/01/28 02:20:26;;;;;;;5.67;4.37;;;;;;;5.87;44.19;101491.09;2568237;23;20152;-69
2022/01/28 02:21:26;;;;;;;5.95;4.28;;;;;;;5.70;44.41;101474.41;2568962;23;20127;-69
2022/01/28 02:22:27;;;;;;;6.53;4.57;;;;;;;6.02;44.28;101517.56;2568252;23;20633;-68
2022/01/28 02:23:27;;;;;;;5.43;4.43;;;;;;;6.09;44.28;101528.63;2568287;23;20203;-69
2022/01/28 02:24:34;;;;;;;6.00;4.57;;;;;;;6.22;43.81;101540.94;2567638;23;20540;-69
2022/01/28 02:25:35;;;;;;;6.32;4.57;;;;;;;5.61;44.04;101468.41;2569093;23;20476;-69
2022/01/28 02:26:37;;;;;;;6.97;5.10;;;;;;;5.56;44.20;101424.78;2568939;23;20149;-69
2022/01/28 02:27:37;;;;;;;5.78;4.10;;;;;;;6.29;43.54;101535.47;2568725;23;20199;-69
2022/01/28 02:28:40;;;;;;;6.37;4.10;;;;;;;5.44;43.59;101412.09;2569565;23;20169;-69
2022/01/28 02:29:43;;;;;;;6.22;4.10;;;;;;;6.29;44.21;101541.00;2569356;23;20566;-69
2022/01/28 02:30:44;;;;;;;5.20;3.95;;;;;;;6.31;44.00;101535.88;2569277;23;20187;-69
2022/01/28 02:31:44;;;;;;;5.68;4.10;;;;;;;6.24;43.83;101519.31;2568713;23;20264;-69
2022/01/28 02:32:47;;;;;;;5.43;3.87;;;;;;;6.37;43.80;101528.88;2569118;23;20145;-69
2022/01/28 02:33:49;;;;;;;4.55;3.70;;;;;;;6.45;43.63;101537.94;2568900;23;20156;-69
2022/01/28 02:34:50;;;;;;;5.72;4.00;;;;;;;6.42;43.40;101541.47;2569081;23;20561;-69
2022/01/28 02:35:51;;;;;;;5.70;4.00;;;;;;;5.82;43.50;101458.44;2568800;23;20159;-69
2022/01/28 02:36:52;;;;;;;5.72;3.78;;;;;;;6.09;43.23;101508.56;2569186;23;20174;-69
2022/01/28 02:37:52;;;;;;;5.97;3.70;;;;;;;6.31;43.68;101543.38;2569150;23;20149;-69
2022/01/28 02:38:54;;;;;;;5.47;3.70;;;;;;;6.31;43.76;101535.88;2569210;23;20611;-69
2022/01/28 02:39:54;;;;;;;5.07;3.75;;;;;;;5.88;44.02;101470.66;2569860;23;20215;-69
2022/01/28 02:40:58;;;;;;;5.30;4.00;;;;;;;5.80;43.97;101471.00;2569205;23;20231;-69
2022/01/28 02:42:06;;;;;;;4.95;3.97;;;;;;;5.85;43.83;101495.41;2568712;23;20180;-69
2022/01/28 02:45:46;;;;;;;7.25;3.83;;;;;;;6.13;43.80;101537.72;2569350;23;20231;-69
2022/01/28 02:47:00;;;;;;;5.95;3.92;;;;;;;5.31;44.04;101407.25;2569838;23;20156;-69
2022/01/28 02:48:06;;;;;;;5.55;4.03;;;;;;;6.17;44.32;101543.25;2568970;23;20139;-69
2022/01/28 02:49:10;;;;;;;6.05;4.10;;;;;;;6.09;44.53;101530.56;2569794;23;20155;-69
2022/01/28 02:50:10;;;;;;;7.20;4.45;;;;;;;6.13;43.66;101547.91;2568731;23;20496;-69
2022/01/28 02:51:16;;;;;;;5.93;4.23;;;;;;;6.16;44.21;101544.41;2569787;23;20253;-69
2022/01/28 02:52:28;;;;;;;5.88;4.30;;;;;;;5.12;43.58;101382.75;2569411;23;20481;-69
2022/01/28 02:54:12;;;;;;;7.50;4.30;;;;;;;6.16;44.20;101541.66;2569779;23;20142;-69
2022/01/28 02:54:59;;;;;;;6.88;4.13;;;;;;;6.00;44.17;101544.66;2564588;23;20565;-69
2022/01/28 02:56:03;;;;;;;5.25;4.15;;;;;;;5.99;44.74;101550.53;2569667;23;20152;-69
2022/01/28 02:57:05;;;;;;;5.57;4.18;;;;;;;5.89;44.80;101546.53;2569606;23;20172;-69
2022/01/28 02:58:22;;;;;;;5.20;3.67;;;;;;;5.95;44.33;101552.47;2569208;23;20149;-69
2022/01/28 02:59:22;;;;;;;6.07;4.20;;;;;;;5.56;44.46;101510.00;2569941;23;20139;-69
2022/01/28 03:00:23;;;;;;;5.80;3.90;;;;;;;5.91;44.94;101557.16;2568896;23;20700;-69
2022/01/28 03:01:24;;;;;;;5.90;4.07;;;;;;;5.77;45.10;101543.22;2570058;23;20150;-69
2022/01/28 03:02:25;;;;;;;6.13;4.10;;;;;;;5.41;44.98;101498.06;2568431;23;20158;-69
2022/01/28 03:03:25;;;;;;;5.30;3.67;;;;;;;5.13;44.89;101445.53;2568972;23;20155;-69
2022/01/28 03:05:05;;;;;;;5.77;4.13;;;;;;;5.87;44.57;101559.06;2567201;23;20607;-69
2022/01/28 03:06:04;;;;;;;5.55;3.90;;;;;;;5.30;44.52;101475.19;2568809;23;20193;-69
2022/01/28 03:07:05;;;;;;;5.60;3.87;;;;;;;4.48;44.26;101331.81;2568946;23;20158;-69
2022/01/28 03:08:06;;;;;;;4.88;3.70;;;;;;;5.88;45.10;101553.19;2568155;23;20165;-69
2022/01/28 03:09:19;;;;;;;5.10;3.90;;;;;;;5.98;44.55;101555.25;2569608;23;20158;-69
2022/01/28 03:10:40;;;;;;;4.53;3.53;;;;;;;5.44;44.25;101467.06;2568728;23;20214;-69
2022/01/28 03:13:16;;;;;;;5.53;3.57;;;;;;;5.89;44.46;101554.78;2569605;23;20164;-69
2022/01/28 03:14:20;;;;;;;5.30;3.75;;;;;;;5.88;44.60;101549.63;2567939;23;20197;-69
2022/01/28 03:15:22;;;;;;;6.53;3.55;;;;;;;5.97;44.21;101556.44;2569812;23;20138;-69
2022/01/28 03:16:24;;;;;;;4.70;3.58;;;;;;;5.76;44.53;101533.38;2568771;23;20636;-69
2022/01/28 03:18:49;;;;;;;4.78;3.85;;;;;;;6.05;44.06;101557.28;2569342;23;20140;-69
2022/01/28 03:19:54;;;;;;;5.85;3.47;;;;;;;6.07;44.54;101560.44;2569625;23;20139;-69
2022/01/28 03:21:56;;;;;;;5.17;3.73;;;;;;;6.10;44.21;101560.47;2569441;23;20633;-69
2022/01/28 03:22:57;;;;;;;5.43;4.00;;;;;;;6.12;43.88;101560.09;2569683;23;20154;-69
2022/01/28 03:23:59;;;;;;;5.83;3.87;;;;;;;6.11;43.32;101570.31;2567778;23;20157;-69
2022/01/28 03:24:59;;;;;;;6.35;4.07;;;;;;;6.03;44.29;101568.66;2568425;23;20152;-69
2022/01/28 03:26:00;;;;;;;5.00;3.50;;;;;;;6.03;44.21;101571.44;2569394;23;20633;-69
2022/01/28 03:27:07;;;;;;;5.73;4.00;;;;;;;4.59;44.19;101343.69;2569541;23;20162;-69
2022/01/28 03:28:08;;;;;;;5.82;4.40;;;;;;;5.95;43.84;101571.75;2568979;23;20139;-69
2022/01/28 03:29:08;;;;;;;5.87;4.47;;;;;;;5.75;44.31;101557.34;2568787;23;20173;-69
2022/01/28 03:30:09;;;;;;;6.53;4.50;;;;;;;5.94;44.71;101561.91;2567557;23;20184;-69
2022/01/28 03:31:10;;;;;;;6.67;4.63;;;;;;;5.96;43.86;101560.38;2569759;23;20685;-68
2022/01/28 03:32:10;;;;;;;7.40;4.70;;;;;;;5.96;44.42;101568.63;2569474;23;20385;-69
2022/01/28 03:33:11;;;;;;;7.10;4.73;;;;;;;5.99;44.07;101567.84;2569622;23;20556;-69
2022/01/28 03:34:11;;;;;;;5.77;4.30;;;;;;;5.98;43.83;101563.50;2568526;23;20157;-69
2022/01/28 03:35:15;;;;;;;7.23;4.67;;;;;;;6.02;43.79;101572.59;2568903;23;20151;-69
2022/01/28 03:36:15;;;;;;;6.50;4.55;;;;;;;5.70;44.16;101523.91;2569362;23;20244;-69
2022/01/28 03:37:16;;;;;;;6.53;4.53;;;;;;;6.01;44.01;101560.00;2569454;23;20150;-69
2022/01/28 03:38:16;;;;;;;6.03;4.40;;;;;;;5.88;44.27;101553.19;2568990;23;20539;-69
2022/01/28 03:39:18;;;;;;;7.23;4.40;;;;;;;6.01;44.46;101572.97;2569770;23;20173;-69
2022/01/28 03:40:20;;;;;;;7.03;4.35;;;;;;;5.44;44.24;101496.53;2567823;23;20200;-69
2022/01/28 03:41:23;;;;;;;5.80;3.80;;;;;;;5.85;44.04;101561.41;2568765;23;20164;-69
2022/01/28 03:42:23;;;;;;;4.70;3.63;;;;;;;5.81;44.36;101555.88;2569122;23;20154;-69
2022/01/28 03:43:24;;;;;;;6.40;4.00;;;;;;;5.81;44.48;101555.09;2569683;23;20155;-69
2022/01/28 03:44:24;;;;;;;4.93;3.87;;;;;;;5.04;44.29;101445.06;2568296;23;20157;-68
2022/01/28 03:45:25;;;;;;;5.17;3.60;;;;;;;5.78;43.83;101558.53;2569616;23;20154;-68
2022/01/28 03:46:26;;;;;;;6.70;4.20;;;;;;;5.40;44.19;101507.50;2569223;23;20187;-69
2022/01/28 03:47:26;;;;;;;4.80;3.73;;;;;;;5.67;44.09;101543.91;2568980;23;20149;-69
2022/01/28 03:48:27;;;;;;;5.07;3.90;;;;;;;5.71;44.19;101556.53;2569155;23;20551;-68
2022/01/28 03:49:27;;;;;;;5.13;4.10;;;;;;;5.72;44.17;101555.34;2569306;23;20150;-69
2022/01/28 03:50:32;;;;;;;5.00;3.67;;;;;;;5.28;44.36;101496.75;2568541;23;20150;-69
2022/01/28 03:51:33;;;;;;;5.00;3.78;;;;;;;5.76;44.36;101558.16;2569649;23;20213;-69
2022/01/28 03:52:33;;;;;;;5.57;3.93;;;;;;;5.61;44.28;101545.41;2569449;23;20593;-68
2022/01/28 03:53:34;;;;;;;5.73;3.93;;;;;;;5.76;44.55;101555.41;2569519;23;20579;-69
2022/01/28 03:54:34;;;;;;;6.60;3.70;;;;;;;5.76;43.87;101547.94;2567986;23;20250;-68
2022/01/28 03:55:36;;;;;;;5.10;3.60;;;;;;;5.80;43.72;101561.75;2569554;23;20187;-68
2022/01/28 03:56:36;;;;;;;5.38;3.55;;;;;;;5.83;44.13;101556.28;2569318;23;20150;-68
2022/01/28 03:57:37;;;;;;;4.97;3.80;;;;;;;4.98;43.80;101429.28;2568994;23;20237;-68
2022/01/28 03:58:38;;;;;;;5.70;3.70;;;;;;;5.75;43.86;101564.81;2581066;23;20160;-68
2022/01/28 03:59:38;;;;;;;5.20;4.10;;;;;;;5.52;44.53;101522.91;2581429;23;20153;-69
2022/01/28 04:00:39;;;;;;;5.30;3.90;;;;;;;5.72;44.56;101554.56;2568998;23;20654;-68
2022/01/28 04:01:41;;;;;;;4.67;3.40;;;;;;;5.79;43.61;101551.91;2569173;23;20681;-69
2022/01/28 04:02:44;;;;;;;4.95;4.03;;;;;;;5.82;43.66;101551.16;2569372;23;20161;-69
2022/01/28 04:04:02;;;;;;;5.32;3.72;;;;;;;5.79;44.14;101552.69;2568702;23;20209;-69
2022/01/28 04:11:38;;;;;;;5.43;3.97;;;;;;;5.75;44.01;101551.84;2569297;23;20205;-68
2022/01/28 04:12:41;;;;;;;4.88;3.65;;;;;;;5.70;44.78;101548.66;2569327;23;20170;-69
2022/01/28 04:13:48;;;;;;;5.70;4.00;;;;;;;5.64;44.74;101558.41;2569085;23;20158;-69
2022/01/28 04:15:37;;;;;;;5.03;3.90;;;;;;;5.59;44.63;101523.00;2580414;23;20163;-68
2022/01/28 04:17:28;;;;;;;5.05;3.83;;;;;;;5.09;44.31;101455.72;2568965;23;20141;-69
2022/01/28 04:18:28;;;;;;;5.40;4.20;;;;;;;5.76;44.48;101541.63;2569338;23;20225;-69
2022/01/28 04:19:29;;;;;;;6.50;4.30;;;;;;;5.73;43.60;101551.44;2569314;23;20612;-69
2022/01/28 04:20:32;;;;;;;5.43;4.03;;;;;;;5.62;44.24;101545.03;2568620;23;20150;-69
2022/01/28 04:21:33;;;;;;;5.25;3.85;;;;;;;5.36;43.97;101512.16;2569434;23;20595;-68
2022/01/28 04:22:33;;;;;;;5.87;3.73;;;;;;;5.57;44.34;101528.88;2568222;23;20533;-69
2022/01/28 04:23:34;;;;;;;5.40;3.97;;;;;;;5.72;44.39;101546.31;2568801;23;20152;-69
2022/01/28 04:24:35;;;;;;;5.27;4.00;;;;;;;5.30;43.69;101472.44;2568001;23;20152;-69
2022/01/28 04:25:35;;;;;;;5.40;3.73;;;;;;;5.52;44.01;101512.72;2569145;23;20163;-69
2022/01/28 04:26:36;;;;;;;5.20;3.90;;;;;;;5.73;43.32;101529.44;2569025;23;20547;-69
2022/01/28 04:27:36;;;;;;;5.13;3.57;;;;;;;4.64;43.71;101376.31;2568939;23;20857;-69
2022/01/28 04:28:37;;;;;;;5.47;3.57;;;;;;;5.64;44.28;101539.94;2569214;23;20161;-69
2022/01/28 04:29:37;;;;;;;6.33;3.83;;;;;;;5.56;43.70;101537.50;2569138;23;20212;-69
2022/01/28 04:30:38;;;;;;;4.47;3.60;;;;;;;5.50;44.44;101537.06;2568367;23;20154;-69
2022/01/28 04:31:46;;;;;;;5.10;3.63;;;;;;;5.53;44.41;101538.28;2569261;23;20179;-69
2022/01/28 04:32:48;;;;;;;4.40;3.33;;;;;;;5.57;44.39;101539.88;2569364;23;20144;-69
2022/01/28 04:33:52;;;;;;;5.30;3.50;;;;;;;4.64;44.21;101389.25;2568409;23;20208;-69
2022/01/28 04:34:54;;;;;;;4.95;3.95;;;;;;;5.53;44.18;101536.28;2568725;23;20155;-69
2022/01/28 04:35:56;;;;;;;5.32;3.67;;;;;;;5.67;44.20;101541.16;2568487;23;20155;-69
2022/01/28 04:38:40;;;;;;;5.82;3.95;;;;;;;5.76;43.68;101536.13;2523894;23;20321;-69
2022/01/28 04:41:00;;;;;;;5.00;3.83;;;;;;;5.50;43.46;101476.56;2568789;23;20154;-69
2022/01/28 04:42:18;;;;;;;5.30;3.80;;;;;;;5.64;43.75;101515.19;2569174;23;20223;-69
2022/01/28 04:43:25;;;;;;;4.57;3.60;;;;;;;5.64;43.93;101520.69;2569513;23;20217;-69
2022/01/28 04:44:36;;;;;;;6.45;3.65;;;;;;;5.85;43.77;101539.41;2568067;23;20138;-69
2022/01/28 04:46:56;;;;;;;5.38;3.60;;;;;;;5.91;42.85;101535.16;2569180;23;20784;-69
2022/01/28 04:49:22;;;;;;;5.57;4.00;;;;;;;5.79;43.38;101522.41;2569182;23;20610;-69
2022/01/28 04:50:46;;;;;;;5.72;4.05;;;;;;;5.88;43.32;101538.63;2567992;23;20189;-69
2022/01/28 04:53:10;;;;;;;6.82;4.00;;;;;;;5.86;43.58;101535.50;2568631;23;20143;-69
2022/01/28 04:56:54;;;;;;;5.50;3.88;;;;;;;5.89;43.23;101540.25;2569177;23;20212;-69
2022/01/28 04:59:34;;;;;;;5.03;3.53;;;;;;;5.94;43.50;101542.66;2569478;23;20164;-69
2022/01/28 05:00:48;;;;;;;5.40;4.00;;;;;;;5.32;43.10;101450.84;2568458;23;20210;-69
2022/01/28 05:02:22;;;;;;;4.80;3.67;;;;;;;5.91;42.87;101546.94;2569123;23;20134;-69
2022/01/28 05:04:48;;;;;;;4.83;3.50;;;;;;;5.86;43.23;101539.03;2567792;23;20213;-69
2022/01/28 05:12:31;;;;;;;4.32;3.47;;;;;;;5.80;43.83;101539.75;2568579;23;20229;-68
2022/01/28 05:27:04;;;;;;;5.90;4.10;;;;;;;5.89;43.23;101530.00;2542158;23;20163;-71
2022/01/28 05:28:04;;;;;;;5.28;3.67;;;;;;;6.00;43.37;101543.88;2563975;23;20235;-71
2022/01/28 05:29:05;;;;;;;7.07;4.03;;;;;;;5.96;43.55;101545.81;2567952;23;20254;-71
2022/01/28 05:30:06;;;;;;;5.50;3.90;;;;;;;5.36;43.76;101448.94;2566779;23;20154;-71
2022/01/28 05:31:07;;;;;;;5.85;3.80;;;;;;;6.15;42.89;101543.63;2569605;23;20600;-67
2022/01/28 05:32:08;;;;;;;5.37;4.07;;;;;;;6.25;43.51;101539.38;2568221;23;20578;-70
2022/01/28 05:33:09;;;;;;;6.10;4.00;;;;;;;6.09;43.47;101539.63;2567498;23;20153;-69
2022/01/28 05:34:09;;;;;;;5.70;3.83;;;;;;;5.73;43.55;101474.44;2566944;23;20162;-69
2022/01/28 05:35:10;;;;;;;7.27;4.10;;;;;;;5.96;43.46;101526.53;2566588;23;20214;-69
2022/01/28 05:36:11;;;;;;;5.80;4.00;;;;;;;6.12;43.66;101552.66;2567936;23;20179;-69
2022/01/28 05:37:11;;;;;;;6.60;4.63;;;;;;;6.14;43.61;101553.03;2568888;23;20148;-69
2022/01/28 05:38:12;;;;;;;5.33;3.97;;;;;;;5.77;42.82;101488.22;2568203;23;20154;-65
2022/01/28 05:39:12;;;;;;;4.77;3.73;;;;;;;6.26;43.58;101560.22;2568275;23;20151;-64
2022/01/28 05:40:13;;;;;;;6.00;4.40;;;;;;;6.29;43.08;101563.00;2569319;23;20502;-66
2022/01/28 05:41:13;;;;;;;5.20;4.20;;;;;;;6.21;42.94;101547.59;2569920;23;20238;-66
2022/01/28 05:42:14;;;;;;;6.13;4.33;;;;;;;6.28;42.92;101558.69;2569791;23;20151;-66
2022/01/28 05:43:14;;;;;;;6.33;4.50;;;;;;;6.28;43.07;101585.41;2569241;23;20280;-66
2022/01/28 05:44:15;;;;;;;5.87;4.03;;;;;;;6.34;43.03;101575.63;2569581;23;20253;-66
2022/01/28 05:45:16;;;;;;;7.17;3.80;;;;;;;6.29;43.20;101571.28;2569565;23;20229;-66
2022/01/28 05:46:18;;;;;;;5.80;3.97;;;;;;;5.71;42.79;101481.47;2567603;23;20189;-66
2022/01/28 05:47:19;;;;;;;5.70;4.00;;;;;;;6.27;43.32;101619.63;2568260;23;20160;-66
2022/01/28 05:48:21;;;;;;;7.22;3.95;;;;;;;6.26;43.04;101577.53;2569456;23;20645;-66
2022/01/28 05:49:22;;;;;;;5.68;4.05;;;;;;;6.34;42.78;101567.38;2567078;23;20161;-73
2022/01/28 05:50:23;;;;;;;6.00;4.32;;;;;;;6.34;43.18;101567.38;2574873;23;20158;-73
2022/01/28 05:51:24;;;;;;;6.10;4.00;;;;;;;6.11;42.74;101522.75;2579443;23;20151;-75
2022/01/28 05:52:24;;;;;;;5.50;3.77;;;;;;;6.36;42.89;101590.59;2567010;23;20601;-75
2022/01/28 05:53:25;;;;;;;5.83;3.90;;;;;;;6.29;42.19;101554.75;2567284;23;20389;-74
2022/01/28 05:54:25;;;;;;;6.60;3.90;;;;;;;6.34;42.30;101565.41;2565905;23;20158;-74
2022/01/28 05:55:26;;;;;;;6.20;3.70;;;;;;;6.39;42.49;101569.75;2566786;23;20167;-75
2022/01/28 05:56:27;;;;;;;6.33;4.10;;;;;;;6.32;42.37;101554.00;2566721;23;20719;-75
2022/01/28 05:57:28;;;;;;;6.90;4.15;;;;;;;6.33;42.51;101554.78;2576025;23;20234;-75
2022/01/28 05:58:28;;;;;;;5.67;3.80;;;;;;;6.46;42.29;101572.59;2574927;23;20162;-75
2022/01/28 05:59:30;;;;;;;5.77;3.70;;;;;;;5.97;41.88;101490.41;2566747;23;20147;-77
2022/01/28 06:00:30;;;;;;;6.18;4.35;;;;;;;6.34;42.41;101537.06;2565527;23;20155;-76
2022/01/28 06:01:31;;;;;;;7.90;4.50;;;;;;;6.34;42.44;101553.59;2566952;23;20626;-76
2022/01/28 06:02:31;;;;;;;7.83;4.83;;;;;;;6.57;42.15;101581.72;2578659;23;20218;-75
2022/01/28 06:03:32;;;;;;;6.70;3.93;;;;;;;6.61;42.21;101591.56;2580199;23;20143;-78
2022/01/28 06:04:36;;;;;;;6.57;4.00;;;;;;;6.65;42.04;101592.41;2567093;23;20262;-75
2022/01/28 06:05:36;;;;;;;4.97;3.30;;;;;;;6.74;42.08;101594.81;2566608;23;20861;-75
2022/01/28 06:06:37;;;;;;;6.13;3.73;;;;;;;6.68;41.52;101586.16;2565417;23;20157;-74
2022/01/28 06:07:42;;;;;;;5.43;3.27;;;;;;;6.75;41.86;101590.88;2566494;23;20152;-75
2022/01/28 06:08:42;;;;;;;5.95;3.72;;;;;;;6.74;41.29;101598.38;2567899;23;20504;-76
2022/01/28 06:09:43;;;;;;;7.03;3.73;;;;;;;6.74;41.62;101592.06;2568053;23;20239;-76
2022/01/28 06:10:43;;;;;;;5.70;3.50;;;;;;;6.33;42.15;101536.31;2568354;23;20155;-76
2022/01/28 06:11:46;;;;;;;5.10;3.70;;;;;;;6.65;41.39;101592.41;2568885;23;20264;-75
2022/01/28 06:12:49;;;;;;;5.30;3.60;;;;;;;6.69;41.66;101592.44;2569625;23;20153;-74